Upstream stations:
Downstream station:
SHEF ID: OKBO2 North Canadian River at Britton
STATION TYPE:
STAGE RIV-FLOW CONDUCT BAT-LOAD
ft cfs umho/cm volt
Ccp-Rev Ccp-Rev Ccp-Rev Ccp-Rev
(US/Central)
03/31 00:00 5.72 92 816 12.38
03/31 01:00 5.77 100 818 12.30
03/31 02:00 5.80 106 818 12.24
03/31 03:00 5.83 111 823 12.21
03/31 04:00 5.85 115 846 12.20
03/31 05:00 5.86 117 885 12.17
03/31 06:00 5.82 109 948 12.14
03/31 07:00 5.80 106 1000 12.11
03/31 08:00 5.86 117 1040 12.08
03/31 09:00 5.81 107 1060 12.86
03/31 10:00 5.79 104 1061 13.69
03/31 11:00 5.78 102 1045 13.89
03/31 12:00 5.81 107 1022 13.76
03/31 13:00 5.77 100 993 13.58
03/31 14:00 5.78 102 967 13.54
03/31 15:00 5.79 104 943 13.51
03/31 16:00 5.83 111 925 13.43
03/31 17:00 5.83 111 909 13.37
03/31 18:00 5.83 111 895 13.29
03/31 19:00 5.87 119 879 13.26
03/31 20:00 5.87 119 868 13.09
03/31 21:00 5.87 119 859 12.82
03/31 22:00 5.87 119 832 12.61
03/31 23:00 5.85 115 853 12.45